createdAt,value
2023-04-18T00:03:40.748Z,100.00
2023-04-18T00:07:27.756Z,100.00
2023-04-18T00:11:14.795Z,100.00
2023-04-18T00:15:01.212Z,100.00
2023-04-18T00:18:54.259Z,100.00
2023-04-18T00:22:49.695Z,100.00
2023-04-18T00:26:50.657Z,100.00
2023-04-18T00:30:47.348Z,100.00
2023-04-18T00:34:49.268Z,100.00
2023-04-18T00:38:52.023Z,100.00
2023-04-18T00:42:52.867Z,100.00
2023-04-18T00:46:49.754Z,100.00
2023-04-18T00:50:50.928Z,100.00
2023-04-18T00:54:48.944Z,100.00
2023-04-18T00:58:51.918Z,100.00
2023-04-18T01:02:49.487Z,100.00
2023-04-18T01:06:51.147Z,100.00
2023-04-18T01:10:48.604Z,100.00
2023-04-18T01:14:49.970Z,100.00
2023-04-18T01:18:45.910Z,100.00
2023-04-18T01:22:48.315Z,100.00
2023-04-18T01:26:45.524Z,100.00
2023-04-18T01:30:46.343Z,100.00
2023-04-18T01:34:43.355Z,100.00
2023-04-18T01:38:44.339Z,100.00
2023-04-18T01:42:41.301Z,100.00
2023-04-18T01:46:45.251Z,100.00
2023-04-18T01:50:43.782Z,100.00
2023-04-18T01:54:46.434Z,100.00
2023-04-18T01:58:43.402Z,100.00
2023-04-18T02:02:45.855Z,100.00
2023-04-18T02:06:43.257Z,100.00
2023-04-18T02:10:44.456Z,100.00
2023-04-18T02:14:41.552Z,100.00
2023-04-18T02:18:43.208Z,100.00
2023-04-18T02:22:43.074Z,100.00
2023-04-18T02:26:43.978Z,100.00
2023-04-18T02:30:41.376Z,100.00
2023-04-18T02:34:42.782Z,100.00
2023-04-18T02:38:37.692Z,100.00
2023-04-18T02:42:43.306Z,100.00
2023-04-18T02:46:45.457Z,100.00
2023-04-18T02:50:47.261Z,100.00
2023-04-18T02:54:44.619Z,100.00
2023-04-18T02:58:49.328Z,100.00
2023-04-18T03:03:09.885Z,100.00
2023-04-18T03:07:14.485Z,100.00
2023-04-18T03:11:11.357Z,100.00
2023-04-18T03:15:12.543Z,100.00
2023-04-18T03:19:10.904Z,100.00
2023-04-18T03:23:10.267Z,100.00
2023-04-18T03:27:05.087Z,100.00
2023-04-18T03:31:09.971Z,100.00
2023-04-18T03:35:08.340Z,100.00
2023-04-18T03:39:09.366Z,100.00
2023-04-18T03:43:06.414Z,100.00
2023-04-18T03:47:08.062Z,100.00
2023-04-18T03:51:04.243Z,100.00
2023-04-18T03:55:09.732Z,100.00
2023-04-18T03:59:07.748Z,100.00
2023-04-18T04:03:09.292Z,100.00
2023-04-18T04:07:06.662Z,100.00
2023-04-18T04:11:07.712Z,100.00
2023-04-18T04:15:04.595Z,100.00
2023-04-18T04:19:04.274Z,100.00
2023-04-18T04:23:11.312Z,100.00
2023-04-18T04:27:13.229Z,100.00
2023-04-18T04:31:11.623Z,100.00
2023-04-18T04:35:12.821Z,100.00
2023-04-18T04:39:19.484Z,100.00
2023-04-18T04:43:18.992Z,100.00
2023-04-18T04:47:06.486Z,100.00
2023-04-18T04:51:00.996Z,100.00
2023-04-18T04:54:56.518Z,100.00
2023-04-18T04:58:58.653Z,100.00
2023-04-18T05:03:04.963Z,100.00
2023-04-18T05:07:02.947Z,100.00
2023-04-18T05:11:08.534Z,100.00
2023-04-18T05:15:06.280Z,100.00
2023-04-18T05:19:07.255Z,100.00
2023-04-18T05:23:02.064Z,100.00
2023-04-18T05:27:03.516Z,100.00
2023-04-18T05:31:00.358Z,100.00
2023-04-18T05:34:47.157Z,100.00
2023-04-18T05:38:34.911Z,100.00
2023-04-18T05:42:22.169Z,100.00
2023-04-18T05:46:15.684Z,100.00
2023-04-18T05:50:16.885Z,100.00
2023-04-18T05:54:14.956Z,100.00
2023-04-18T05:58:16.108Z,100.00
2023-04-18T06:02:14.491Z,100.00
2023-04-18T06:06:16.043Z,100.00
2023-04-18T06:10:33.371Z,100.00
2023-04-18T06:14:34.736Z,100.00
2023-04-18T06:18:37.233Z,100.00
2023-04-18T06:22:44.172Z,100.00
2023-04-18T06:26:46.130Z,100.00
2023-04-18T06:30:44.203Z,100.00
2023-04-18T06:34:45.269Z,100.00
2023-04-18T06:38:43.596Z,100.00
2023-04-18T06:42:44.469Z,100.00
2023-04-18T06:46:47.615Z,100.00
2023-04-18T06:50:50.069Z,100.00
2023-04-18T06:54:46.895Z,100.00
2023-04-18T06:58:48.689Z,100.00
2023-04-18T07:02:47.197Z,100.00
2023-04-18T07:06:49.441Z,100.00
2023-04-18T07:10:46.975Z,100.00
2023-04-18T07:14:50.257Z,100.00
2023-04-18T07:18:48.082Z,100.00
2023-04-18T07:22:49.665Z,100.00
2023-04-18T07:26:49.776Z,100.00
2023-04-18T07:30:51.735Z,100.00
2023-04-18T07:34:48.808Z,100.00
2023-04-18T07:38:51.054Z,100.00
2023-04-18T07:42:48.955Z,100.00
2023-04-18T07:46:50.973Z,100.00
2023-04-18T07:50:48.374Z,100.00
2023-04-18T07:54:50.223Z,100.00
2023-04-18T07:58:47.154Z,100.00
2023-04-18T08:02:48.851Z,100.00
2023-04-18T08:06:47.254Z,100.00
2023-04-18T08:10:47.809Z,100.00
2023-04-18T08:14:45.018Z,100.00
2023-04-18T08:18:46.805Z,100.00
2023-04-18T08:22:57.705Z,100.00
2023-04-18T08:27:05.512Z,100.00
2023-04-18T08:31:01.983Z,100.00
2023-04-18T08:35:02.746Z,100.00
2023-04-18T08:39:08.178Z,100.00
2023-04-18T08:43:06.702Z,100.00
2023-04-18T08:47:10.946Z,100.00
2023-04-18T08:50:50.882Z,100.00
2023-04-18T08:54:51.650Z,100.00
2023-04-18T08:58:48.660Z,100.00
2023-04-18T09:02:49.916Z,100.00
2023-04-18T09:06:46.316Z,100.00
2023-04-18T09:10:46.820Z,100.00
2023-04-18T09:14:41.673Z,100.00
2023-04-18T09:18:42.667Z,100.00
2023-04-18T09:22:42.984Z,100.00
2023-04-18T09:26:44.081Z,100.00
2023-04-18T09:30:36.840Z,100.00
2023-04-18T09:34:37.253Z,100.00
2023-04-18T09:38:30.311Z,100.00
2023-04-18T09:42:29.131Z,100.00
2023-04-18T09:46:24.095Z,100.00
2023-04-18T09:50:28.740Z,100.00
2023-04-18T09:54:26.366Z,100.00
2023-04-18T09:58:26.942Z,100.00
2023-04-18T10:02:24.629Z,100.00
2023-04-18T10:06:26.036Z,99.19
2023-04-18T10:10:20.457Z,100.00
2023-04-18T10:14:26.887Z,100.00
2023-04-18T10:18:25.297Z,99.34
2023-04-18T10:22:26.430Z,100.00
2023-04-18T10:26:24.354Z,97.32
2023-04-18T10:30:25.191Z,97.01
2023-04-18T10:34:22.255Z,72.94
2023-04-18T10:38:21.245Z,87.40
2023-04-18T10:42:22.718Z,86.31
2023-04-18T10:46:31.928Z,85.15
2023-04-18T10:50:29.870Z,80.99
2023-04-18T10:54:34.210Z,72.68
2023-04-18T10:58:31.923Z,72.35
2023-04-18T11:02:33.777Z,66.75
2023-04-18T11:06:31.077Z,64.01
2023-04-18T11:10:32.451Z,60.44
2023-04-18T11:14:29.481Z,68.87
2023-04-18T11:18:30.978Z,63.63
2023-04-18T11:22:28.201Z,61.78
2023-04-18T11:26:27.104Z,56.34
2023-04-18T11:30:28.156Z,55.76
2023-04-18T11:34:29.564Z,53.49
2023-04-18T11:38:26.450Z,50.67
2023-04-18T11:42:27.556Z,56.52
2023-04-18T11:46:25.486Z,54.68
2023-04-18T11:50:23.850Z,55.17
2023-04-18T11:54:18.300Z,52.68
2023-04-18T11:58:19.595Z,53.63
2023-04-18T12:02:17.247Z,51.82
2023-04-18T12:06:17.699Z,51.28
2023-04-18T12:10:14.600Z,49.27
2023-04-18T12:14:15.254Z,49.97
2023-04-18T12:18:09.938Z,51.04
2023-04-18T12:22:14.217Z,52.80
2023-04-18T12:26:12.058Z,52.31
2023-04-18T12:30:13.971Z,52.83
2023-04-18T12:34:15.125Z,53.07
2023-04-18T12:38:21.245Z,52.63
2023-04-18T12:42:14.081Z,54.18
2023-04-18T12:46:01.243Z,50.64
2023-04-18T12:49:49.088Z,51.93
2023-04-18T12:53:36.068Z,52.27
2023-04-18T12:57:35.491Z,53.44
2023-04-18T13:01:41.220Z,54.21
2023-04-18T13:05:44.782Z,50.91
2023-04-18T13:09:43.291Z,46.29
2023-04-18T13:13:48.679Z,46.08
2023-04-18T13:17:43.754Z,44.98
2023-04-18T13:21:43.823Z,42.44
2023-04-18T13:25:46.359Z,44.91
2023-04-18T13:29:48.197Z,43.80
2023-04-18T13:33:36.397Z,41.86
2023-04-18T13:37:24.378Z,41.76
2023-04-18T13:41:13.449Z,41.12
2023-04-18T13:45:01.066Z,39.16
2023-04-18T13:48:48.163Z,38.79
2023-04-18T13:52:35.336Z,42.03
2023-04-18T13:56:22.334Z,43.51
2023-04-18T14:00:09.004Z,44.13
2023-04-18T14:04:05.293Z,43.13
2023-04-18T14:08:11.588Z,40.24
2023-04-18T14:12:13.649Z,43.64
2023-04-18T14:16:17.074Z,44.04
2023-04-18T14:20:17.373Z,43.72
2023-04-18T14:24:22.669Z,43.00
2023-04-18T14:28:21.566Z,44.87
2023-04-18T14:32:09.606Z,43.99
2023-04-18T14:36:02.940Z,45.18
2023-04-18T14:40:03.026Z,45.96
2023-04-18T14:44:03.287Z,44.45
2023-04-18T14:48:08.852Z,45.81
2023-04-18T14:52:10.246Z,45.17
2023-04-18T14:56:13.445Z,43.03
2023-04-18T15:00:07.863Z,44.49
2023-04-18T15:04:12.538Z,45.31
2023-04-18T15:08:11.268Z,45.78
2023-04-18T15:12:04.991Z,47.65
2023-04-18T15:15:57.845Z,46.90
2023-04-18T15:19:59.964Z,47.08
2023-04-18T15:23:58.377Z,49.45
2023-04-18T15:28:01.538Z,47.44
2023-04-18T15:31:56.569Z,52.23
2023-04-18T15:36:01.908Z,50.85
2023-04-18T15:48:09.512Z,47.42
2023-04-18T15:52:13.315Z,48.66
2023-04-18T15:56:12.504Z,50.30
2023-04-18T16:00:11.477Z,51.66
2023-04-18T16:04:07.930Z,50.57
2023-04-18T16:08:06.616Z,49.57
2023-04-18T16:12:10.512Z,49.58
2023-04-18T16:16:13.355Z,50.03
2023-04-18T16:20:13.717Z,51.24
2023-04-18T16:24:17.106Z,52.92
2023-04-18T16:28:11.472Z,56.39
2023-04-18T16:31:57.906Z,58.94
2023-04-18T16:35:50.900Z,60.28
2023-04-18T16:39:54.471Z,62.13
2023-04-18T16:43:54.560Z,63.24
2023-04-18T16:47:58.008Z,69.03
2023-04-18T16:51:57.824Z,76.81
2023-04-18T16:56:00.580Z,83.50
2023-04-18T17:00:00.719Z,86.39
2023-04-18T17:04:04.856Z,88.43
2023-04-18T17:08:04.451Z,90.79
2023-04-18T17:12:07.581Z,92.49
2023-04-18T17:16:07.708Z,96.65
2023-04-18T17:20:11.068Z,98.53
2023-04-18T17:24:09.655Z,99.42
2023-04-18T17:28:13.185Z,100.00
2023-04-18T17:32:12.818Z,100.00
2023-04-18T17:36:15.636Z,100.00
2023-04-18T17:40:14.743Z,100.00
2023-04-18T17:44:17.784Z,100.00
2023-04-18T17:48:16.860Z,100.00
2023-04-18T17:52:19.617Z,100.00
2023-04-18T17:56:19.659Z,100.00
2023-04-18T18:00:22.910Z,100.00
2023-04-18T18:04:25.837Z,100.00
2023-04-18T18:08:29.757Z,100.00
2023-04-18T18:12:29.930Z,100.00
2023-04-18T18:16:32.584Z,100.00
2023-04-18T18:20:32.830Z,100.00
2023-04-18T18:24:36.527Z,100.00
2023-04-18T18:28:35.952Z,100.00
2023-04-18T18:32:39.363Z,100.00
2023-04-18T18:36:39.575Z,100.00
2023-04-18T18:40:42.884Z,100.00
2023-04-18T18:44:40.512Z,100.00
2023-04-18T18:48:41.534Z,100.00
2023-04-18T18:52:39.970Z,100.00
2023-04-18T18:56:41.231Z,100.00
2023-04-18T19:00:39.215Z,100.00
2023-04-18T19:04:40.646Z,100.00
2023-04-18T19:08:38.323Z,100.00
2023-04-18T19:12:39.356Z,100.00
2023-04-18T19:16:37.069Z,100.00
2023-04-18T19:20:39.179Z,100.00
2023-04-18T19:24:36.520Z,100.00
2023-04-18T19:28:37.331Z,100.00
2023-04-18T19:32:21.225Z,100.00
2023-04-18T19:36:18.183Z,100.00
2023-04-18T19:40:19.538Z,100.00
2023-04-18T19:44:16.700Z,100.00
2023-04-18T19:48:18.123Z,100.00
2023-04-18T19:52:15.991Z,100.00
2023-04-18T19:56:16.168Z,100.00
2023-04-18T20:00:13.461Z,100.00
2023-04-18T20:04:16.191Z,100.00
2023-04-18T20:08:14.154Z,100.00
2023-04-18T20:12:15.079Z,100.00
2023-04-18T20:16:12.139Z,100.00
2023-04-18T20:20:13.111Z,100.00
2023-04-18T20:24:10.951Z,100.00
2023-04-18T20:28:11.582Z,100.00
2023-04-18T20:32:07.921Z,100.00
2023-04-18T20:36:15.136Z,100.00
2023-04-18T20:40:09.469Z,100.00
2023-04-18T20:43:55.696Z,100.00
2023-04-18T20:47:41.812Z,100.00
2023-04-18T20:51:28.722Z,100.00
2023-04-18T20:55:15.311Z,100.00
2023-04-18T20:59:01.626Z,100.00
2023-04-18T21:02:48.326Z,100.00
2023-04-18T21:06:42.034Z,100.00
2023-04-18T21:10:39.546Z,100.00
2023-04-18T21:14:38.688Z,100.00
2023-04-18T21:18:39.626Z,100.00
2023-04-18T21:22:44.268Z,100.00
2023-04-18T21:26:41.005Z,100.00
2023-04-18T21:30:40.004Z,100.00
2023-04-18T21:34:26.832Z,100.00
2023-04-18T21:38:13.106Z,100.00
2023-04-18T21:41:59.261Z,100.00
2023-04-18T21:45:45.177Z,100.00
2023-04-18T21:49:37.300Z,100.00
2023-04-18T21:53:34.874Z,100.00
2023-04-18T21:57:31.901Z,100.00
2023-04-18T22:01:33.012Z,100.00
2023-04-18T22:05:29.904Z,100.00
2023-04-18T22:09:30.680Z,100.00
2023-04-18T22:13:25.256Z,100.00
2023-04-18T22:17:31.256Z,100.00
2023-04-18T22:21:25.356Z,100.00
2023-04-18T22:25:11.817Z,100.00
2023-04-18T22:28:58.212Z,100.00
2023-04-18T22:32:44.312Z,100.00
2023-04-18T22:36:30.771Z,100.00
2023-04-18T22:40:16.902Z,100.00
2023-04-18T22:44:03.188Z,100.00
2023-04-18T22:47:49.364Z,100.00
2023-04-18T22:51:35.327Z,100.00
2023-04-18T22:55:27.442Z,100.00
2023-04-18T22:59:31.879Z,100.00
2023-04-18T23:03:32.301Z,100.00
2023-04-18T23:07:30.929Z,100.00
2023-04-18T23:11:31.167Z,100.00
2023-04-18T23:15:29.723Z,100.00
2023-04-18T23:19:27.999Z,100.00
2023-04-18T23:23:30.136Z,100.00
2023-04-18T23:27:24.467Z,100.00
2023-04-18T23:31:23.043Z,100.00
2023-04-18T23:35:28.149Z,100.00
2023-04-18T23:39:26.510Z,100.00
2023-04-18T23:43:25.169Z,100.00
2023-04-18T23:47:19.644Z,100.00
2023-04-18T23:51:24.150Z,100.00
2023-04-18T23:55:22.428Z,100.00
2023-04-18T23:59:23.320Z,100.00
